Main page
Satellite images 15-day forecastsClimateMarine weather Cyclones Lightning AirportsFAQ Newsletter About
Weather : Europe Africa North America South America Asia Australia-Oceania Others
Languages Contact

Hanover, Germany

Langenhagen

latitude: 52-28N, longitude: 009-41E, elevation: 56 m


METAR: EDDV 241620Z 16005KT 9999 FEW037 BKN300 12/07 Q1019 NOSIG
TAF: EDDV 241100Z 2412/2512 16010KT 9999 BKN040 TEMPO 2503/2512 4000 RADZ BKN012

Time: 18:49 (16:49 UTC)

Current weather observation

The report was made 29 minutes ago, at 16:20 UTC
Wind 5 kt from the South/Southeast
Temperature 12°C
Humidity 71%
Pressure 1019 hPa
Visibility 10 km or more
Few clouds at a height of 3700 ft
Broken clouds at a height of 30000 ft

Change units

Forecast

The report was made 5 hours and 49 minutes ago, at 11:00 UTC
Forecast valid from 24 at 12 UTC to 25 at 12 UTC
Wind 10 kt from the South/Southeast
Visibility 10 km or more
Broken clouds at a height of 4000 ft
Temporary
from 25 at 03 UTC to 25 at 12 UTC
Visibility: 4000 m
Broken clouds at a height of 1200 ft
rain drizzle
The information on this site is subject to a disclaimer
Weather : Europe Africa North America South America Asia Australia-Oceania Others
Satellite images 15-day forecastsClimateMarine weather Cyclones Lightning AirportsFAQ Languages Contact Newsletter About